createdAt,value
2018-12-29T00:03:19.581Z,88.95
2018-12-29T00:06:07.277Z,89.05
2018-12-29T00:08:35.843Z,88.98
2018-12-29T00:11:04.152Z,88.98
2018-12-29T00:13:32.547Z,88.95
2018-12-29T00:18:48.177Z,89.04
2018-12-29T00:21:16.470Z,88.93
2018-12-29T00:24:04.241Z,89.04
2018-12-29T00:29:19.909Z,89.08
2018-12-29T00:31:48.216Z,89.27
2018-12-29T00:34:35.945Z,89.27
2018-12-29T00:37:04.241Z,89.48
2018-12-29T00:39:52.193Z,89.63
2018-12-29T00:42:20.511Z,89.57
2018-12-29T00:44:48.814Z,89.54
2018-12-29T00:47:17.142Z,89.65
2018-12-29T00:52:35.030Z,89.64
2018-12-29T00:55:03.322Z,89.64
2018-12-29T00:57:31.621Z,89.56
2018-12-29T01:02:53.963Z,89.60
2018-12-29T01:05:41.653Z,89.44
2018-12-29T01:10:57.289Z,89.27
2018-12-29T01:13:25.581Z,89.39
2018-12-29T01:15:54.262Z,89.47
2018-12-29T01:18:22.573Z,89.63
2018-12-29T01:20:50.864Z,89.71
2018-12-29T01:23:38.557Z,89.66
2018-12-29T01:26:06.848Z,89.77
2018-12-29T01:28:35.170Z,89.71
2018-12-29T01:31:22.846Z,89.79
2018-12-29T01:33:51.154Z,89.50
2018-12-29T01:36:19.468Z,89.84
2018-12-29T01:38:47.778Z,89.70
2018-12-29T01:41:16.065Z,89.61
2018-12-29T01:43:44.353Z,90.09
2018-12-29T01:46:32.041Z,90.31
2018-12-29T01:49:00.334Z,90.57
2018-12-29T01:51:28.651Z,90.56
2018-12-29T01:53:57.286Z,90.60
2018-12-29T01:56:25.610Z,90.72
2018-12-29T01:58:54.250Z,90.55
2018-12-29T02:01:22.550Z,90.89
2018-12-29T02:03:50.878Z,90.87
2018-12-29T02:06:19.479Z,90.97
2018-12-29T02:08:48.069Z,90.81
2018-12-29T02:11:16.374Z,90.99
2018-12-29T02:13:44.685Z,91.02
2018-12-29T02:16:12.986Z,91.22
2018-12-29T02:18:41.278Z,91.28
2018-12-29T02:21:09.850Z,91.23
2018-12-29T02:23:38.140Z,91.02
2018-12-29T02:26:06.463Z,91.37
2018-12-29T02:28:34.753Z,91.50
2018-12-29T02:31:22.438Z,91.32
2018-12-29T02:36:59.943Z,91.64
2018-12-29T02:39:28.254Z,91.49
2018-12-29T02:41:56.563Z,91.55
2018-12-29T02:44:46.049Z,91.68
2018-12-29T02:47:33.490Z,91.74
2018-12-29T02:50:01.794Z,91.74
2018-12-29T02:52:30.088Z,91.84
2018-12-29T02:54:58.721Z,91.89
2018-12-29T02:57:27.026Z,91.77
2018-12-29T02:59:55.336Z,91.89
2018-12-29T03:02:43.009Z,92.05
2018-12-29T03:05:11.319Z,91.95
2018-12-29T03:07:39.972Z,91.64
2018-12-29T03:10:08.265Z,91.88
2018-12-29T03:12:36.577Z,91.76
2018-12-29T03:15:44.912Z,91.78
2018-12-29T03:18:13.239Z,91.63
2018-12-29T03:20:41.526Z,91.58
2018-12-29T03:23:09.863Z,91.74
2018-12-29T03:25:38.161Z,91.86
2018-12-29T03:28:06.466Z,92.08
2018-12-29T03:30:34.784Z,91.83
2018-12-29T03:33:22.471Z,92.09
2018-12-29T03:36:09.896Z,92.20
2018-12-29T03:38:38.252Z,92.04
2018-12-29T03:41:25.943Z,92.10
2018-12-29T03:43:54.247Z,92.29
2018-12-29T03:46:22.538Z,92.41
2018-12-29T03:48:50.859Z,92.39
2018-12-29T03:51:19.151Z,92.04
2018-12-29T03:53:47.471Z,92.15
2018-12-29T03:56:15.763Z,92.09
2018-12-29T03:58:44.415Z,92.51
2018-12-29T04:01:32.078Z,92.51
2018-12-29T04:04:00.399Z,92.63
2018-12-29T04:12:49.463Z,92.75
2018-12-29T04:17:51.246Z,92.81
2018-12-29T04:20:38.927Z,92.89
2018-12-29T04:23:07.247Z,92.87
2018-12-29T04:25:35.885Z,92.96
2018-12-29T04:28:04.189Z,93.10
2018-12-29T04:30:51.633Z,93.31
2018-12-29T04:36:07.268Z,93.19
2018-12-29T04:38:35.582Z,93.05
2018-12-29T04:41:23.522Z,93.37
2018-12-29T04:44:11.197Z,93.45
2018-12-29T04:46:39.517Z,93.58
2018-12-29T04:49:07.810Z,93.68
2018-12-29T04:51:36.122Z,93.82
2018-12-29T04:54:04.437Z,93.81
2018-12-29T04:56:32.733Z,93.81
2018-12-29T04:59:01.041Z,93.83
2018-12-29T05:01:29.338Z,93.86
2018-12-29T05:03:57.711Z,93.86
2018-12-29T05:06:45.373Z,93.80
2018-12-29T05:09:13.971Z,93.64
2018-12-29T05:11:42.282Z,93.82
2018-12-29T05:14:10.591Z,93.91
2018-12-29T05:16:38.881Z,93.86
2018-12-29T05:19:07.174Z,93.54
2018-12-29T05:21:35.485Z,93.56
2018-12-29T05:24:03.780Z,93.69
2018-12-29T05:26:32.114Z,93.90
2018-12-29T05:29:19.770Z,93.77
2018-12-29T05:31:48.434Z,94.11
2018-12-29T05:34:16.737Z,94.25
2018-12-29T05:36:45.025Z,94.23
2018-12-29T05:39:13.347Z,94.14
2018-12-29T05:42:01.013Z,94.22
2018-12-29T05:44:29.670Z,94.02
2018-12-29T05:46:57.963Z,94.14
2018-12-29T05:49:26.276Z,94.13
2018-12-29T05:51:54.569Z,94.16
2018-12-29T05:54:22.873Z,94.09
2018-12-29T05:56:51.191Z,94.36
2018-12-29T05:59:19.478Z,94.37
2018-12-29T06:01:48.119Z,94.26
2018-12-29T06:04:16.408Z,94.42
2018-12-29T06:07:04.057Z,94.38
2018-12-29T06:09:32.352Z,94.31
2018-12-29T06:12:00.638Z,94.28
2018-12-29T06:14:28.942Z,94.43
2018-12-29T06:16:57.236Z,94.58
2018-12-29T06:19:25.560Z,94.60
2018-12-29T06:21:53.866Z,94.63
2018-12-29T06:24:22.155Z,94.62
2018-12-29T06:26:50.474Z,94.40
2018-12-29T06:29:18.779Z,94.57
2018-12-29T06:32:06.478Z,94.71
2018-12-29T06:34:34.768Z,94.71
2018-12-29T06:37:03.087Z,94.70
2018-12-29T06:39:31.391Z,94.66
2018-12-29T06:42:18.829Z,94.87
2018-12-29T06:44:47.132Z,94.73
2018-12-29T06:47:15.441Z,94.80
2018-12-29T06:49:43.752Z,94.94
2018-12-29T06:52:12.058Z,94.98
2018-12-29T06:54:40.377Z,94.94
2018-12-29T06:57:08.670Z,94.81
2018-12-29T06:59:36.983Z,94.79
2018-12-29T07:02:24.457Z,94.72
2018-12-29T07:04:53.050Z,94.57
2018-12-29T07:07:40.975Z,94.61
2018-12-29T07:10:09.566Z,94.90
2018-12-29T07:12:57.243Z,95.08
2018-12-29T07:15:25.887Z,95.12
2018-12-29T07:18:13.557Z,95.11
2018-12-29T07:20:41.865Z,94.97
2018-12-29T07:23:10.172Z,94.84
2018-12-29T07:25:38.462Z,94.77
2018-12-29T07:28:07.029Z,95.00
2018-12-29T07:30:35.611Z,95.01
2018-12-29T07:35:38.327Z,94.97
2018-12-29T07:38:06.633Z,94.95
2018-12-29T07:40:54.299Z,95.07
2018-12-29T07:43:22.903Z,95.03
2018-12-29T07:45:51.203Z,95.13
2018-12-29T07:48:19.513Z,95.12
2018-12-29T07:50:47.828Z,95.13
2018-12-29T07:53:16.146Z,95.00
2018-12-29T07:55:44.433Z,94.91
2018-12-29T07:58:12.720Z,94.78
2018-12-29T08:00:41.041Z,94.78
2018-12-29T08:03:28.463Z,94.79
2018-12-29T08:05:56.769Z,94.91
2018-12-29T08:08:44.180Z,94.87
2018-12-29T08:11:12.497Z,94.83
2018-12-29T08:13:40.810Z,94.79
2018-12-29T08:16:28.502Z,94.63
2018-12-29T08:18:56.810Z,94.71
2018-12-29T08:21:25.410Z,94.81
2018-12-29T08:23:53.736Z,94.79
2018-12-29T08:26:22.042Z,94.85
2018-12-29T08:28:50.330Z,94.74
2018-12-29T08:33:52.605Z,94.62
2018-12-29T08:36:40.053Z,94.55
2018-12-29T08:39:08.354Z,94.47
2018-12-29T08:41:57.265Z,94.36
2018-12-29T08:44:25.570Z,94.51
2018-12-29T08:47:13.266Z,94.51
2018-12-29T08:52:28.900Z,94.57
2018-12-29T08:54:57.206Z,94.47
2018-12-29T09:00:12.832Z,94.36
2018-12-29T09:02:41.129Z,94.30
2018-12-29T09:05:28.814Z,94.24
2018-12-29T09:07:57.102Z,94.39
2018-12-29T09:10:25.425Z,94.19
2018-12-29T09:13:13.085Z,94.12
2018-12-29T09:15:41.644Z,93.95
2018-12-29T09:18:09.946Z,94.07
2018-12-29T09:20:38.259Z,94.07
2018-12-29T09:23:06.642Z,94.10
2018-12-29T09:25:34.941Z,94.19
2018-12-29T09:28:03.260Z,94.24
2018-12-29T09:30:31.567Z,94.21
2018-12-29T09:33:19.334Z,94.15
2018-12-29T09:35:47.636Z,93.78
2018-12-29T09:38:35.339Z,94.05
2018-12-29T09:41:03.633Z,94.06
2018-12-29T09:43:32.215Z,94.04
2018-12-29T09:46:00.796Z,93.93
2018-12-29T09:48:48.474Z,93.94
2018-12-29T09:51:16.790Z,93.87
2018-12-29T09:53:45.091Z,93.74
2018-12-29T09:56:13.396Z,93.71
2018-12-29T09:58:41.768Z,93.74
2018-12-29T10:01:10.429Z,93.76
2018-12-29T10:03:57.836Z,93.72
2018-12-29T10:06:26.148Z,93.68
2018-12-29T10:08:54.453Z,93.58
2018-12-29T10:11:23.085Z,93.59
2018-12-29T10:13:51.394Z,93.58
2018-12-29T10:16:19.944Z,93.60
2018-12-29T10:18:48.252Z,93.53
2018-12-29T10:21:16.544Z,93.46
2018-12-29T10:23:44.862Z,93.39
2018-12-29T10:26:13.165Z,92.94
2018-12-29T10:28:41.736Z,92.91
2018-12-29T10:31:10.046Z,92.98
2018-12-29T10:33:38.336Z,92.88
2018-12-29T10:36:26.035Z,92.73
2018-12-29T10:38:54.329Z,92.63
2018-12-29T10:41:41.763Z,92.13
2018-12-29T10:44:10.305Z,92.28
2018-12-29T10:49:31.644Z,92.19
2018-12-29T10:51:59.945Z,91.79
2018-12-29T10:54:28.272Z,91.64
2018-12-29T10:56:56.573Z,91.46
2018-12-29T11:01:58.360Z,91.32
2018-12-29T11:04:26.649Z,91.12
2018-12-29T11:06:55.304Z,90.87
2018-12-29T11:09:23.638Z,90.68
2018-12-29T11:11:51.954Z,90.55
2018-12-29T11:14:39.429Z,90.32
2018-12-29T11:17:08.026Z,90.20
2018-12-29T11:19:36.312Z,90.15
2018-12-29T11:24:51.938Z,90.00
2018-12-29T11:27:20.241Z,90.08
2018-12-29T11:29:48.915Z,89.85
2018-12-29T11:32:17.224Z,89.88
2018-12-29T11:35:04.913Z,89.89
2018-12-29T11:37:52.839Z,89.59
2018-12-29T11:40:40.481Z,89.32
2018-12-29T11:43:08.783Z,89.06
2018-12-29T11:45:37.087Z,89.08
2018-12-29T11:48:05.720Z,89.04
2018-12-29T11:50:34.033Z,89.27
2018-12-29T11:53:02.323Z,89.21
2018-12-29T11:55:30.621Z,88.99
2018-12-29T11:58:00.978Z,88.46
2018-12-29T12:00:48.648Z,88.93
2018-12-29T12:03:56.991Z,88.89
2018-12-29T12:06:25.281Z,88.50
2018-12-29T12:08:53.608Z,88.73
2018-12-29T12:11:22.161Z,88.25
2018-12-29T12:14:09.858Z,87.91
2018-12-29T12:19:27.161Z,87.92
2018-12-29T12:21:55.457Z,87.70
2018-12-29T12:27:11.083Z,87.82
2018-12-29T12:29:41.117Z,87.93
2018-12-29T12:32:09.454Z,88.09
2018-12-29T12:34:37.754Z,87.83
2018-12-29T12:37:06.061Z,87.86
2018-12-29T12:39:34.348Z,87.85
2018-12-29T12:42:02.638Z,87.89
2018-12-29T12:44:31.293Z,87.79
2018-12-29T12:46:59.597Z,87.75
2018-12-29T12:49:27.885Z,87.41
2018-12-29T12:51:56.211Z,87.61
2018-12-29T12:54:43.885Z,86.84
2018-12-29T12:57:12.376Z,87.32
2018-12-29T13:00:01.517Z,87.10
2018-12-29T13:02:30.102Z,87.03
2018-12-29T13:04:58.407Z,87.29
2018-12-29T13:07:26.692Z,87.29
2018-12-29T13:10:14.395Z,87.32
2018-12-29T13:12:42.702Z,86.66
2018-12-29T13:15:11.008Z,86.88
2018-12-29T13:17:39.298Z,87.23
2018-12-29T13:20:07.623Z,87.37
2018-12-29T13:22:35.917Z,87.25
2018-12-29T13:25:23.682Z,87.22
2018-12-29T13:28:11.591Z,87.20
2018-12-29T13:30:40.209Z,86.37
2018-12-29T13:33:27.643Z,86.71
2018-12-29T13:36:15.334Z,87.00
2018-12-29T13:38:43.635Z,87.23
2018-12-29T13:41:11.944Z,86.96
2018-12-29T13:46:27.576Z,87.24
2018-12-29T13:48:56.207Z,87.21
2018-12-29T13:51:24.504Z,87.26
2018-12-29T13:53:53.174Z,87.20
2018-12-29T13:56:40.610Z,87.14
2018-12-29T13:59:08.911Z,87.05
2018-12-29T14:01:37.558Z,87.03
2018-12-29T14:06:39.344Z,86.71
2018-12-29T14:09:07.670Z,86.97
2018-12-29T14:11:35.948Z,87.05
2018-12-29T14:14:04.239Z,86.69
2018-12-29T14:16:32.572Z,86.88
2018-12-29T14:19:00.872Z,87.30
2018-12-29T14:21:29.185Z,87.31
2018-12-29T14:26:44.813Z,87.33
2018-12-29T14:29:13.105Z,87.35
2018-12-29T14:32:01.109Z,87.11
2018-12-29T14:34:48.639Z,87.02
2018-12-29T14:37:16.937Z,87.31
2018-12-29T14:42:32.924Z,87.54
2018-12-29T14:45:20.853Z,87.62
2018-12-29T14:48:08.551Z,87.49
2018-12-29T14:50:37.173Z,87.11
2018-12-29T14:53:05.489Z,87.16
2018-12-29T14:55:33.799Z,87.41
2018-12-29T14:58:02.359Z,87.57
2018-12-29T15:00:51.516Z,87.84
2018-12-29T15:03:39.268Z,88.06
2018-12-29T15:06:09.296Z,88.00
2018-12-29T15:08:37.908Z,88.51
2018-12-29T15:11:06.242Z,88.27
2018-12-29T15:13:53.907Z,88.72
2018-12-29T15:16:43.657Z,89.14
2018-12-29T15:19:11.959Z,89.51
2018-12-29T15:21:40.263Z,89.30
2018-12-29T15:24:09.006Z,89.90
2018-12-29T15:26:38.585Z,90.01
2018-12-29T15:29:08.625Z,90.48
2018-12-29T15:34:24.266Z,91.09
2018-12-29T15:36:52.557Z,91.30
2018-12-29T15:39:22.580Z,91.53
2018-12-29T15:44:44.688Z,92.43
2018-12-29T15:47:13.007Z,92.92
2018-12-29T15:49:41.312Z,93.36
2018-12-29T15:52:29.002Z,93.78
2018-12-29T15:55:16.690Z,94.18
2018-12-29T15:57:44.993Z,94.31
2018-12-29T16:00:13.305Z,94.54
2018-12-29T16:03:02.208Z,94.78
2018-12-29T16:05:31.344Z,94.91
2018-12-29T16:10:33.988Z,94.98
2018-12-29T16:13:02.618Z,95.41
2018-12-29T16:15:30.950Z,95.56
2018-12-29T16:18:00.962Z,95.75
2018-12-29T16:20:53.234Z,95.84
2018-12-29T16:23:18.974Z,95.79
2018-12-29T16:25:49.084Z,95.84
2018-12-29T16:28:36.754Z,95.67
2018-12-29T16:31:06.784Z,95.81
2018-12-29T16:33:37.058Z,95.99
2018-12-29T16:36:07.364Z,96.31
2018-12-29T16:38:35.666Z,96.49
2018-12-29T16:43:53.016Z,96.69
2018-12-29T16:46:40.652Z,96.92
2018-12-29T16:49:28.103Z,96.89
2018-12-29T16:51:56.403Z,96.90
2018-12-29T16:57:12.293Z,97.17
2018-12-29T16:59:40.600Z,97.21
2018-12-29T17:04:42.598Z,97.23
2018-12-29T17:07:30.044Z,97.22
2018-12-29T17:10:17.709Z,97.34
2018-12-29T17:12:46.030Z,97.36
2018-12-29T17:15:16.043Z,97.25
2018-12-29T17:17:44.631Z,97.05
2018-12-29T17:22:46.710Z,97.36
2018-12-29T17:25:15.035Z,97.12
2018-12-29T17:27:43.588Z,97.31
2018-12-29T17:32:46.577Z,97.43
2018-12-29T17:38:08.300Z,97.36
2018-12-29T17:40:55.949Z,97.44
2018-12-29T17:46:30.939Z,97.35
2018-12-29T17:51:46.579Z,97.36
2018-12-29T17:54:15.189Z,97.39
2018-12-29T17:56:43.487Z,97.48
2018-12-29T17:59:13.530Z,97.56
2018-12-29T18:04:30.899Z,97.50
2018-12-29T18:06:59.503Z,97.56
2018-12-29T18:09:27.809Z,97.56
2018-12-29T18:12:22.437Z,97.67
2018-12-29T18:14:51.561Z,97.73
2018-12-29T18:17:19.858Z,97.70
2018-12-29T18:19:48.416Z,97.61
2018-12-29T18:25:48.787Z,97.72
2018-12-29T18:28:17.073Z,97.54
2018-12-29T18:31:04.734Z,97.39
2018-12-29T18:33:52.519Z,97.20
2018-12-29T18:36:41.877Z,97.08
2018-12-29T18:39:10.173Z,97.08
2018-12-29T18:41:57.882Z,97.03
2018-12-29T18:44:45.795Z,97.02
2018-12-29T18:47:14.114Z,97.08
2018-12-29T18:50:01.794Z,96.90
2018-12-29T18:52:30.088Z,96.99
2018-12-29T18:55:17.865Z,96.96
2018-12-29T18:57:47.890Z,97.16
2018-12-29T19:00:16.202Z,97.23
2018-12-29T19:02:44.506Z,97.32
2018-12-29T19:05:12.810Z,97.43
2018-12-29T19:07:41.101Z,97.50
2018-12-29T19:10:11.120Z,97.61
2018-12-29T19:12:58.556Z,97.68
2018-12-29T19:15:27.680Z,97.81
2018-12-29T19:17:56.881Z,97.83
2018-12-29T19:23:14.250Z,97.85
2018-12-29T19:25:42.556Z,97.91
2018-12-29T19:30:46.449Z,97.93
2018-12-29T19:35:50.666Z,97.87
2018-12-29T19:38:21.021Z,97.97
2018-12-29T19:40:51.036Z,98.07
2018-12-29T19:43:19.609Z,98.13
2018-12-29T19:46:07.573Z,98.25
2018-12-29T19:48:35.853Z,98.30
2018-12-29T19:51:30.208Z,98.28
2018-12-29T19:53:58.496Z,98.31
2018-12-29T19:56:46.192Z,98.15
2018-12-29T19:59:35.610Z,98.15
2018-12-29T20:05:10.591Z,97.88
2018-12-29T20:07:38.898Z,97.89
2018-12-29T20:10:47.239Z,97.96
2018-12-29T20:16:02.878Z,97.74
2018-12-29T20:18:50.558Z,97.65
2018-12-29T20:21:19.158Z,97.06
2018-12-29T20:23:47.467Z,96.62
2018-12-29T20:26:35.156Z,96.21
2018-12-29T20:29:22.829Z,95.90
2018-12-29T20:32:10.532Z,95.49
2018-12-29T20:34:38.821Z,95.34
2018-12-29T20:37:26.253Z,95.19
2018-12-29T20:39:54.554Z,94.85
2018-12-29T20:45:33.279Z,94.39
2018-12-29T20:48:21.019Z,93.96
2018-12-29T20:51:08.456Z,93.57
2018-12-29T20:53:36.749Z,93.18
2018-12-29T20:56:06.800Z,93.00
2018-12-29T21:01:24.140Z,92.75
2018-12-29T21:03:52.461Z,92.79
2018-12-29T21:06:22.489Z,92.70
2018-12-29T21:08:50.778Z,92.02
2018-12-29T21:14:31.528Z,91.00
2018-12-29T21:16:59.852Z,90.24
2018-12-29T21:19:28.140Z,89.38
2018-12-29T21:21:56.728Z,88.38
2018-12-29T21:24:44.408Z,87.06
2018-12-29T21:30:00.159Z,85.65
2018-12-29T21:32:30.077Z,85.07
2018-12-29T21:35:17.500Z,84.81
2018-12-29T21:40:33.143Z,84.89
2018-12-29T21:43:01.501Z,84.92
2018-12-29T21:48:17.120Z,84.95
2018-12-29T21:50:45.407Z,84.83
2018-12-29T21:53:13.708Z,84.79
2018-12-29T21:55:43.297Z,85.04
2018-12-29T21:58:12.035Z,85.09
2018-12-29T22:00:40.316Z,85.26
2018-12-29T22:03:10.352Z,84.86
2018-12-29T22:05:38.635Z,84.78
2018-12-29T22:08:26.307Z,84.66
2018-12-29T22:10:54.598Z,84.79
2018-12-29T22:16:12.007Z,84.29
2018-12-29T22:21:27.633Z,84.17
2018-12-29T22:23:55.914Z,84.37
2018-12-29T22:26:24.215Z,84.29
2018-12-29T22:31:42.358Z,84.19
2018-12-29T22:34:30.037Z,84.23
2018-12-29T22:36:58.344Z,84.17
2018-12-29T22:39:28.364Z,84.43
2018-12-29T22:41:56.673Z,84.23
2018-12-29T22:46:59.266Z,83.45
2018-12-29T22:49:27.580Z,83.43
2018-12-29T22:51:57.872Z,83.29
2018-12-29T22:54:26.177Z,83.15
2018-12-29T22:56:54.480Z,82.97
2018-12-29T22:59:23.088Z,83.13
2018-12-29T23:01:51.405Z,82.97
2018-12-29T23:04:19.687Z,83.14
2018-12-29T23:06:48.007Z,83.06
2018-12-29T23:09:18.018Z,82.70
2018-12-29T23:11:46.299Z,83.11
2018-12-29T23:14:14.604Z,83.11
2018-12-29T23:16:43.194Z,82.83
2018-12-29T23:19:11.868Z,82.94
2018-12-29T23:21:40.453Z,82.75
2018-12-29T23:24:10.477Z,82.84
2018-12-29T23:26:38.774Z,82.75
2018-12-29T23:29:09.072Z,82.79
2018-12-29T23:31:37.656Z,82.91
2018-12-29T23:34:05.957Z,82.93
2018-12-29T23:36:34.525Z,82.90
2018-12-29T23:39:02.893Z,82.69
2018-12-29T23:41:50.568Z,82.92
2018-12-29T23:44:18.866Z,82.94
2018-12-29T23:46:47.176Z,83.08
2018-12-29T23:49:15.485Z,83.00
2018-12-29T23:54:32.965Z,83.17
2018-12-29T23:57:01.260Z,82.87
2018-12-29T23:59:29.563Z,82.95
